sensor_id;sensor_type;location;lat;lon;timestamp;P1;durP1;ratioP1;P2;durP2;ratioP2
68284;SDS011;55114;52.052;5.238;2022-12-07T00:01:51;11.50;;;4.10;;
68284;SDS011;55114;52.052;5.238;2022-12-07T00:04:18;10.43;;;4.10;;
68284;SDS011;55114;52.052;5.238;2022-12-07T00:06:46;9.43;;;4.17;;
68284;SDS011;55114;52.052;5.238;2022-12-07T00:09:14;10.15;;;4.28;;
68284;SDS011;55114;52.052;5.238;2022-12-07T00:11:42;12.98;;;4.65;;
68284;SDS011;55114;52.052;5.238;2022-12-07T00:14:13;11.70;;;4.13;;
68284;SDS011;55114;52.052;5.238;2022-12-07T00:16:41;10.80;;;4.43;;
68284;SDS011;55114;52.052;5.238;2022-12-07T00:19:09;9.87;;;4.03;;
68284;SDS011;55114;52.052;5.238;2022-12-07T00:21:37;10.07;;;3.90;;
68284;SDS011;55114;52.052;5.238;2022-12-07T00:24:05;11.70;;;4.28;;
68284;SDS011;55114;52.052;5.238;2022-12-07T00:26:36;12.60;;;4.32;;
68284;SDS011;55114;52.052;5.238;2022-12-07T00:32:00;14.63;;;3.87;;
68284;SDS011;55114;52.052;5.238;2022-12-07T00:34:27;12.05;;;3.60;;
68284;SDS011;55114;52.052;5.238;2022-12-07T00:36:54;8.18;;;3.63;;
68284;SDS011;55114;52.052;5.238;2022-12-07T00:39:22;10.00;;;3.70;;
68284;SDS011;55114;52.052;5.238;2022-12-07T00:41:49;9.77;;;3.70;;
68284;SDS011;55114;52.052;5.238;2022-12-07T00:44:16;8.03;;;3.63;;
68284;SDS011;55114;52.052;5.238;2022-12-07T00:46:43;7.20;;;3.53;;
68284;SDS011;55114;52.052;5.238;2022-12-07T00:49:11;9.38;;;4.00;;
68284;SDS011;55114;52.052;5.238;2022-12-07T00:51:38;8.07;;;3.67;;
68284;SDS011;55114;52.052;5.238;2022-12-07T00:54:06;9.05;;;3.75;;
68284;SDS011;55114;52.052;5.238;2022-12-07T00:56:33;9.27;;;3.60;;
68284;SDS011;55114;52.052;5.238;2022-12-07T00:59:01;9.60;;;3.58;;
68284;SDS011;55114;52.052;5.238;2022-12-07T01:01:29;11.88;;;3.60;;
68284;SDS011;55114;52.052;5.238;2022-12-07T01:03:57;13.15;;;3.75;;
68284;SDS011;55114;52.052;5.238;2022-12-07T01:06:28;10.68;;;3.80;;
68284;SDS011;55114;52.052;5.238;2022-12-07T01:08:59;11.10;;;3.30;;
68284;SDS011;55114;52.052;5.238;2022-12-07T01:11:30;8.43;;;3.28;;
68284;SDS011;55114;52.052;5.238;2022-12-07T01:13:58;11.77;;;3.20;;
68284;SDS011;55114;52.052;5.238;2022-12-07T01:16:27;9.52;;;3.08;;
68284;SDS011;55114;52.052;5.238;2022-12-07T01:18:55;7.90;;;3.05;;
68284;SDS011;55114;52.052;5.238;2022-12-07T01:21:23;10.13;;;2.90;;
68284;SDS011;55114;52.052;5.238;2022-12-07T01:23:51;7.25;;;3.30;;
68284;SDS011;55114;52.052;5.238;2022-12-07T01:26:20;9.40;;;3.03;;
68284;SDS011;55114;52.052;5.238;2022-12-07T01:28:47;10.18;;;2.63;;
68284;SDS011;55114;52.052;5.238;2022-12-07T01:31:16;10.00;;;2.72;;
68284;SDS011;55114;52.052;5.238;2022-12-07T01:33:46;9.20;;;2.67;;
68284;SDS011;55114;52.052;5.238;2022-12-07T01:38:42;7.35;;;2.70;;
68284;SDS011;55114;52.052;5.238;2022-12-07T01:41:10;6.90;;;3.00;;
68284;SDS011;55114;52.052;5.238;2022-12-07T01:44:05;13.20;;;3.40;;
68284;SDS011;55114;52.052;5.238;2022-12-07T01:46:32;9.90;;;2.80;;
68284;SDS011;55114;52.052;5.238;2022-12-07T01:48:59;11.30;;;3.00;;
68284;SDS011;55114;52.052;5.238;2022-12-07T01:51:27;11.40;;;3.35;;
68284;SDS011;55114;52.052;5.238;2022-12-07T01:53:55;10.55;;;3.20;;
68284;SDS011;55114;52.052;5.238;2022-12-07T01:56:23;9.32;;;3.45;;
68284;SDS011;55114;52.052;5.238;2022-12-07T01:58:51;11.43;;;3.30;;
68284;SDS011;55114;52.052;5.238;2022-12-07T02:01:19;10.88;;;3.58;;
68284;SDS011;55114;52.052;5.238;2022-12-07T02:03:47;10.70;;;3.55;;
68284;SDS011;55114;52.052;5.238;2022-12-07T02:06:16;9.35;;;3.25;;
68284;SDS011;55114;52.052;5.238;2022-12-07T02:08:45;10.30;;;3.40;;
68284;SDS011;55114;52.052;5.238;2022-12-07T02:11:14;11.73;;;3.20;;
68284;SDS011;55114;52.052;5.238;2022-12-07T02:13:42;9.80;;;3.72;;
68284;SDS011;55114;52.052;5.238;2022-12-07T02:16:18;9.68;;;3.97;;
68284;SDS011;55114;52.052;5.238;2022-12-07T02:21:37;12.00;;;3.45;;
68284;SDS011;55114;52.052;5.238;2022-12-07T02:24:25;11.43;;;3.60;;
68284;SDS011;55114;52.052;5.238;2022-12-07T02:27:00;10.00;;;3.47;;
68284;SDS011;55114;52.052;5.238;2022-12-07T02:29:39;13.13;;;3.22;;
68284;SDS011;55114;52.052;5.238;2022-12-07T02:32:22;14.55;;;3.35;;
68284;SDS011;55114;52.052;5.238;2022-12-07T02:40:41;11.15;;;3.17;;
68284;SDS011;55114;52.052;5.238;2022-12-07T02:46:16;10.88;;;3.25;;
68284;SDS011;55114;52.052;5.238;2022-12-07T02:48:44;8.00;;;3.33;;
68284;SDS011;55114;52.052;5.238;2022-12-07T02:51:12;9.83;;;2.97;;
68284;SDS011;55114;52.052;5.238;2022-12-07T02:53:41;10.00;;;2.90;;
68284;SDS011;55114;52.052;5.238;2022-12-07T02:56:21;10.75;;;2.92;;
68284;SDS011;55114;52.052;5.238;2022-12-07T03:03:58;7.17;;;2.57;;
68284;SDS011;55114;52.052;5.238;2022-12-07T03:06:31;7.13;;;2.40;;
68284;SDS011;55114;52.052;5.238;2022-12-07T03:11:50;9.27;;;2.60;;
68284;SDS011;55114;52.052;5.238;2022-12-07T03:15:04;8.07;;;2.53;;
68284;SDS011;55114;52.052;5.238;2022-12-07T03:17:12;11.20;;;2.67;;
68284;SDS011;55114;52.052;5.238;2022-12-07T03:19:44;8.85;;;2.63;;
68284;SDS011;55114;52.052;5.238;2022-12-07T03:22:12;11.90;;;3.00;;
68284;SDS011;55114;52.052;5.238;2022-12-07T03:27:30;15.15;;;3.25;;
68284;SDS011;55114;52.052;5.238;2022-12-07T03:30:09;8.43;;;2.30;;
68284;SDS011;55114;52.052;5.238;2022-12-07T03:35:19;8.20;;;2.83;;
68284;SDS011;55114;52.052;5.238;2022-12-07T03:37:50;8.80;;;2.40;;
68284;SDS011;55114;52.052;5.238;2022-12-07T03:40:30;8.35;;;2.67;;
68284;SDS011;55114;52.052;5.238;2022-12-07T03:42:57;8.07;;;2.53;;
68284;SDS011;55114;52.052;5.238;2022-12-07T03:45:31;6.63;;;2.28;;
68284;SDS011;55114;52.052;5.238;2022-12-07T03:51:03;11.73;;;2.97;;
68284;SDS011;55114;52.052;5.238;2022-12-07T03:53:35;9.27;;;2.88;;
68284;SDS011;55114;52.052;5.238;2022-12-07T03:56:04;6.33;;;2.20;;
68284;SDS011;55114;52.052;5.238;2022-12-07T03:58:32;8.52;;;2.38;;
68284;SDS011;55114;52.052;5.238;2022-12-07T04:01:00;8.52;;;2.40;;
68284;SDS011;55114;52.052;5.238;2022-12-07T04:03:28;7.35;;;2.10;;
68284;SDS011;55114;52.052;5.238;2022-12-07T04:05:55;16.17;;;2.63;;
68284;SDS011;55114;52.052;5.238;2022-12-07T04:08:24;10.97;;;2.00;;
68284;SDS011;55114;52.052;5.238;2022-12-07T04:10:53;9.30;;;3.00;;
68284;SDS011;55114;52.052;5.238;2022-12-07T04:13:23;8.88;;;2.70;;
68284;SDS011;55114;52.052;5.238;2022-12-07T04:15:50;6.70;;;2.60;;
68284;SDS011;55114;52.052;5.238;2022-12-07T04:18:20;10.73;;;2.90;;
68284;SDS011;55114;52.052;5.238;2022-12-07T04:20:47;11.37;;;3.30;;
68284;SDS011;55114;52.052;5.238;2022-12-07T04:23:17;8.32;;;2.70;;
68284;SDS011;55114;52.052;5.238;2022-12-07T04:25:44;8.77;;;2.78;;
68284;SDS011;55114;52.052;5.238;2022-12-07T04:28:14;8.18;;;2.50;;
68284;SDS011;55114;52.052;5.238;2022-12-07T04:30:42;10.10;;;2.30;;
68284;SDS011;55114;52.052;5.238;2022-12-07T04:33:09;10.17;;;1.90;;
68284;SDS011;55114;52.052;5.238;2022-12-07T04:35:36;8.45;;;1.83;;
68284;SDS011;55114;52.052;5.238;2022-12-07T04:38:04;5.90;;;1.67;;
68284;SDS011;55114;52.052;5.238;2022-12-07T04:40:32;5.88;;;1.42;;
68284;SDS011;55114;52.052;5.238;2022-12-07T04:42:59;6.97;;;1.50;;
68284;SDS011;55114;52.052;5.238;2022-12-07T04:45:27;8.10;;;1.40;;
68284;SDS011;55114;52.052;5.238;2022-12-07T04:47:54;6.53;;;1.35;;
68284;SDS011;55114;52.052;5.238;2022-12-07T04:50:22;6.40;;;1.40;;
68284;SDS011;55114;52.052;5.238;2022-12-07T04:52:49;10.02;;;1.50;;
68284;SDS011;55114;52.052;5.238;2022-12-07T04:55:16;8.18;;;1.60;;
68284;SDS011;55114;52.052;5.238;2022-12-07T04:57:43;6.23;;;1.50;;
68284;SDS011;55114;52.052;5.238;2022-12-07T05:00:12;6.57;;;1.55;;
68284;SDS011;55114;52.052;5.238;2022-12-07T05:02:39;6.03;;;1.20;;
68284;SDS011;55114;52.052;5.238;2022-12-07T05:05:06;8.88;;;1.50;;
68284;SDS011;55114;52.052;5.238;2022-12-07T05:07:34;6.03;;;1.25;;
68284;SDS011;55114;52.052;5.238;2022-12-07T05:10:01;5.70;;;1.30;;
68284;SDS011;55114;52.052;5.238;2022-12-07T05:12:29;5.07;;;1.40;;
68284;SDS011;55114;52.052;5.238;2022-12-07T05:14:56;4.95;;;1.58;;
68284;SDS011;55114;52.052;5.238;2022-12-07T05:17:23;7.85;;;1.50;;
68284;SDS011;55114;52.052;5.238;2022-12-07T05:19:50;7.15;;;1.45;;
68284;SDS011;55114;52.052;5.238;2022-12-07T05:22:17;5.97;;;1.30;;
68284;SDS011;55114;52.052;5.238;2022-12-07T05:24:44;7.32;;;1.60;;
68284;SDS011;55114;52.052;5.238;2022-12-07T05:27:12;5.03;;;1.45;;
68284;SDS011;55114;52.052;5.238;2022-12-07T05:29:39;6.38;;;1.50;;
68284;SDS011;55114;52.052;5.238;2022-12-07T05:32:06;4.53;;;1.38;;
68284;SDS011;55114;52.052;5.238;2022-12-07T05:34:33;10.67;;;1.50;;
68284;SDS011;55114;52.052;5.238;2022-12-07T05:37:03;9.57;;;1.40;;
68284;SDS011;55114;52.052;5.238;2022-12-07T05:39:30;9.90;;;1.60;;
68284;SDS011;55114;52.052;5.238;2022-12-07T05:41:58;6.50;;;1.48;;
68284;SDS011;55114;52.052;5.238;2022-12-07T05:44:41;6.57;;;1.67;;
68284;SDS011;55114;52.052;5.238;2022-12-07T05:47:10;7.00;;;1.60;;
68284;SDS011;55114;52.052;5.238;2022-12-07T05:49:38;6.53;;;1.40;;
68284;SDS011;55114;52.052;5.238;2022-12-07T05:52:06;9.30;;;1.48;;
68284;SDS011;55114;52.052;5.238;2022-12-07T05:54:34;5.60;;;1.33;;
68284;SDS011;55114;52.052;5.238;2022-12-07T05:57:04;7.25;;;1.65;;
68284;SDS011;55114;52.052;5.238;2022-12-07T05:59:32;5.27;;;1.10;;
68284;SDS011;55114;52.052;5.238;2022-12-07T06:02:00;10.82;;;1.30;;
68284;SDS011;55114;52.052;5.238;2022-12-07T06:04:30;8.35;;;1.52;;
68284;SDS011;55114;52.052;5.238;2022-12-07T06:06:57;4.57;;;1.20;;
68284;SDS011;55114;52.052;5.238;2022-12-07T06:09:25;5.45;;;1.40;;
68284;SDS011;55114;52.052;5.238;2022-12-07T06:11:52;4.77;;;1.00;;
68284;SDS011;55114;52.052;5.238;2022-12-07T06:14:39;6.38;;;1.13;;
68284;SDS011;55114;52.052;5.238;2022-12-07T06:17:07;7.60;;;1.67;;
68284;SDS011;55114;52.052;5.238;2022-12-07T06:19:38;6.43;;;1.20;;
68284;SDS011;55114;52.052;5.238;2022-12-07T06:22:05;8.77;;;1.30;;
68284;SDS011;55114;52.052;5.238;2022-12-07T06:24:33;7.40;;;1.10;;
68284;SDS011;55114;52.052;5.238;2022-12-07T06:27:00;7.80;;;1.20;;
68284;SDS011;55114;52.052;5.238;2022-12-07T06:29:27;7.65;;;1.17;;
68284;SDS011;55114;52.052;5.238;2022-12-07T06:31:55;8.45;;;1.40;;
68284;SDS011;55114;52.052;5.238;2022-12-07T06:34:23;11.20;;;1.52;;
68284;SDS011;55114;52.052;5.238;2022-12-07T06:36:51;6.67;;;1.20;;
68284;SDS011;55114;52.052;5.238;2022-12-07T06:39:20;6.72;;;1.20;;
68284;SDS011;55114;52.052;5.238;2022-12-07T06:41:47;7.65;;;1.30;;
68284;SDS011;55114;52.052;5.238;2022-12-07T06:44:15;6.25;;;1.25;;
68284;SDS011;55114;52.052;5.238;2022-12-07T06:46:42;6.45;;;1.45;;
68284;SDS011;55114;52.052;5.238;2022-12-07T06:49:09;7.77;;;1.10;;
68284;SDS011;55114;52.052;5.238;2022-12-07T06:51:36;6.80;;;1.20;;
68284;SDS011;55114;52.052;5.238;2022-12-07T06:54:08;11.57;;;1.40;;
68284;SDS011;55114;52.052;5.238;2022-12-07T06:56:41;4.47;;;1.23;;
68284;SDS011;55114;52.052;5.238;2022-12-07T06:59:09;10.73;;;1.80;;
68284;SDS011;55114;52.052;5.238;2022-12-07T07:01:36;8.97;;;1.53;;
68284;SDS011;55114;52.052;5.238;2022-12-07T07:04:04;7.32;;;1.60;;
68284;SDS011;55114;52.052;5.238;2022-12-07T07:06:32;8.25;;;1.50;;
68284;SDS011;55114;52.052;5.238;2022-12-07T07:08:59;9.07;;;1.70;;
68284;SDS011;55114;52.052;5.238;2022-12-07T07:11:27;32.67;;;8.52;;
68284;SDS011;55114;52.052;5.238;2022-12-07T07:13:54;10.43;;;2.77;;
68284;SDS011;55114;52.052;5.238;2022-12-07T07:16:23;9.18;;;1.60;;
68284;SDS011;55114;52.052;5.238;2022-12-07T07:18:50;8.50;;;1.45;;
68284;SDS011;55114;52.052;5.238;2022-12-07T07:21:17;11.55;;;1.30;;
68284;SDS011;55114;52.052;5.238;2022-12-07T07:23:45;11.70;;;1.60;;
68284;SDS011;55114;52.052;5.238;2022-12-07T07:26:12;8.23;;;1.33;;
68284;SDS011;55114;52.052;5.238;2022-12-07T07:28:46;12.85;;;1.70;;
68284;SDS011;55114;52.052;5.238;2022-12-07T07:31:14;9.25;;;1.45;;
68284;SDS011;55114;52.052;5.238;2022-12-07T07:33:41;10.13;;;1.73;;
68284;SDS011;55114;52.052;5.238;2022-12-07T07:36:09;9.75;;;1.85;;
68284;SDS011;55114;52.052;5.238;2022-12-07T07:38:37;12.00;;;1.80;;
68284;SDS011;55114;52.052;5.238;2022-12-07T07:41:05;10.88;;;2.83;;
68284;SDS011;55114;52.052;5.238;2022-12-07T07:43:33;12.45;;;2.80;;
68284;SDS011;55114;52.052;5.238;2022-12-07T07:46:00;35.83;;;9.88;;
68284;SDS011;55114;52.052;5.238;2022-12-07T07:48:28;17.67;;;4.95;;
68284;SDS011;55114;52.052;5.238;2022-12-07T07:50:56;15.93;;;2.87;;
68284;SDS011;55114;52.052;5.238;2022-12-07T07:53:24;10.82;;;3.10;;
68284;SDS011;55114;52.052;5.238;2022-12-07T07:55:52;10.07;;;2.20;;
68284;SDS011;55114;52.052;5.238;2022-12-07T07:58:20;7.55;;;1.60;;
68284;SDS011;55114;52.052;5.238;2022-12-07T08:00:47;8.82;;;1.80;;
68284;SDS011;55114;52.052;5.238;2022-12-07T08:03:15;9.87;;;1.60;;
68284;SDS011;55114;52.052;5.238;2022-12-07T08:05:42;7.28;;;2.00;;
68284;SDS011;55114;52.052;5.238;2022-12-07T08:08:10;12.82;;;1.70;;
68284;SDS011;55114;52.052;5.238;2022-12-07T08:10:38;7.18;;;1.98;;
68284;SDS011;55114;52.052;5.238;2022-12-07T08:13:05;11.55;;;1.80;;
68284;SDS011;55114;52.052;5.238;2022-12-07T08:15:44;10.20;;;1.90;;
68284;SDS011;55114;52.052;5.238;2022-12-07T08:18:12;8.63;;;1.80;;
68284;SDS011;55114;52.052;5.238;2022-12-07T08:20:40;9.80;;;1.92;;
68284;SDS011;55114;52.052;5.238;2022-12-07T08:23:09;9.40;;;2.00;;
68284;SDS011;55114;52.052;5.238;2022-12-07T08:25:36;7.68;;;1.60;;
68284;SDS011;55114;52.052;5.238;2022-12-07T08:28:04;9.33;;;1.70;;
68284;SDS011;55114;52.052;5.238;2022-12-07T08:30:32;8.00;;;1.90;;
68284;SDS011;55114;52.052;5.238;2022-12-07T08:33:00;10.45;;;2.15;;
68284;SDS011;55114;52.052;5.238;2022-12-07T08:35:27;12.02;;;2.30;;
68284;SDS011;55114;52.052;5.238;2022-12-07T08:37:57;9.88;;;2.67;;
68284;SDS011;55114;52.052;5.238;2022-12-07T08:40:24;8.83;;;2.20;;
68284;SDS011;55114;52.052;5.238;2022-12-07T08:42:52;17.08;;;3.08;;
68284;SDS011;55114;52.052;5.238;2022-12-07T08:45:20;12.38;;;3.25;;
68284;SDS011;55114;52.052;5.238;2022-12-07T08:47:57;16.17;;;4.18;;
68284;SDS011;55114;52.052;5.238;2022-12-07T08:50:28;9.77;;;3.20;;
68284;SDS011;55114;52.052;5.238;2022-12-07T08:52:56;11.70;;;3.43;;
68284;SDS011;55114;52.052;5.238;2022-12-07T08:55:25;10.45;;;2.90;;
68284;SDS011;55114;52.052;5.238;2022-12-07T08:57:53;13.63;;;2.72;;
68284;SDS011;55114;52.052;5.238;2022-12-07T09:00:21;8.18;;;2.05;;
68284;SDS011;55114;52.052;5.238;2022-12-07T09:02:49;14.95;;;2.40;;
68284;SDS011;55114;52.052;5.238;2022-12-07T09:05:17;10.43;;;2.27;;
68284;SDS011;55114;52.052;5.238;2022-12-07T09:07:46;9.93;;;1.60;;
68284;SDS011;55114;52.052;5.238;2022-12-07T09:10:15;7.65;;;2.22;;
68284;SDS011;55114;52.052;5.238;2022-12-07T09:12:43;9.85;;;2.15;;
68284;SDS011;55114;52.052;5.238;2022-12-07T09:15:11;12.23;;;2.20;;
68284;SDS011;55114;52.052;5.238;2022-12-07T09:17:40;8.10;;;1.90;;
68284;SDS011;55114;52.052;5.238;2022-12-07T09:20:08;9.27;;;2.20;;
68284;SDS011;55114;52.052;5.238;2022-12-07T09:22:36;7.65;;;2.50;;
68284;SDS011;55114;52.052;5.238;2022-12-07T09:25:04;14.25;;;2.70;;
68284;SDS011;55114;52.052;5.238;2022-12-07T09:27:34;9.30;;;2.80;;
68284;SDS011;55114;52.052;5.238;2022-12-07T09:30:02;10.07;;;2.63;;
68284;SDS011;55114;52.052;5.238;2022-12-07T09:32:30;12.40;;;2.50;;
68284;SDS011;55114;52.052;5.238;2022-12-07T09:34:57;9.20;;;2.25;;
68284;SDS011;55114;52.052;5.238;2022-12-07T09:37:24;9.60;;;2.53;;
68284;SDS011;55114;52.052;5.238;2022-12-07T09:39:52;9.60;;;2.15;;
68284;SDS011;55114;52.052;5.238;2022-12-07T09:42:29;6.67;;;1.60;;
68284;SDS011;55114;52.052;5.238;2022-12-07T09:44:59;10.90;;;1.80;;
68284;SDS011;55114;52.052;5.238;2022-12-07T09:50:22;9.65;;;3.15;;
68284;SDS011;55114;52.052;5.238;2022-12-07T09:52:54;7.05;;;1.70;;
68284;SDS011;55114;52.052;5.238;2022-12-07T09:55:28;9.23;;;2.00;;
68284;SDS011;55114;52.052;5.238;2022-12-07T09:57:57;5.88;;;1.48;;
68284;SDS011;55114;52.052;5.238;2022-12-07T10:00:42;8.13;;;1.65;;
68284;SDS011;55114;52.052;5.238;2022-12-07T10:03:23;8.90;;;1.73;;
68284;SDS011;55114;52.052;5.238;2022-12-07T10:05:52;7.97;;;1.90;;
68284;SDS011;55114;52.052;5.238;2022-12-07T10:08:20;6.60;;;1.60;;
68284;SDS011;55114;52.052;5.238;2022-12-07T10:10:52;6.95;;;1.52;;
68284;SDS011;55114;52.052;5.238;2022-12-07T10:13:35;4.97;;;1.65;;
68284;SDS011;55114;52.052;5.238;2022-12-07T10:16:05;4.72;;;1.42;;
68284;SDS011;55114;52.052;5.238;2022-12-07T10:18:37;7.82;;;1.52;;
68284;SDS011;55114;52.052;5.238;2022-12-07T10:23:39;5.78;;;1.70;;
68284;SDS011;55114;52.052;5.238;2022-12-07T10:28:56;10.13;;;1.67;;
68284;SDS011;55114;52.052;5.238;2022-12-07T10:31:31;6.72;;;1.45;;
68284;SDS011;55114;52.052;5.238;2022-12-07T10:33:59;8.10;;;1.40;;
68284;SDS011;55114;52.052;5.238;2022-12-07T10:36:38;6.00;;;1.60;;
68284;SDS011;55114;52.052;5.238;2022-12-07T10:39:16;7.15;;;1.23;;
68284;SDS011;55114;52.052;5.238;2022-12-07T10:41:55;9.98;;;1.80;;
68284;SDS011;55114;52.052;5.238;2022-12-07T10:44:24;5.57;;;1.48;;
68284;SDS011;55114;52.052;5.238;2022-12-07T10:47:08;8.07;;;1.40;;
68284;SDS011;55114;52.052;5.238;2022-12-07T10:52:28;5.88;;;1.30;;
68284;SDS011;55114;52.052;5.238;2022-12-07T10:55:19;7.68;;;1.70;;
68284;SDS011;55114;52.052;5.238;2022-12-07T10:58:04;7.90;;;1.40;;
68284;SDS011;55114;52.052;5.238;2022-12-07T11:00:43;7.03;;;1.40;;
68284;SDS011;55114;52.052;5.238;2022-12-07T11:21:25;5.07;;;0.80;;
68284;SDS011;55114;52.052;5.238;2022-12-07T11:24:08;4.65;;;0.93;;
68284;SDS011;55114;52.052;5.238;2022-12-07T11:29:44;4.97;;;0.90;;
68284;SDS011;55114;52.052;5.238;2022-12-07T11:34:58;6.75;;;0.98;;
68284;SDS011;55114;52.052;5.238;2022-12-07T11:37:31;5.03;;;1.08;;
68284;SDS011;55114;52.052;5.238;2022-12-07T11:40:08;7.60;;;1.27;;
68284;SDS011;55114;52.052;5.238;2022-12-07T11:42:46;3.97;;;0.80;;
68284;SDS011;55114;52.052;5.238;2022-12-07T11:45:23;5.75;;;1.10;;
68284;SDS011;55114;52.052;5.238;2022-12-07T11:50:43;4.78;;;0.80;;
68284;SDS011;55114;52.052;5.238;2022-12-07T11:55:40;4.50;;;0.95;;
68284;SDS011;55114;52.052;5.238;2022-12-07T11:58:56;4.32;;;0.95;;
68284;SDS011;55114;52.052;5.238;2022-12-07T12:01:01;6.43;;;1.25;;
68284;SDS011;55114;52.052;5.238;2022-12-07T12:03:34;4.28;;;1.13;;
68284;SDS011;55114;52.052;5.238;2022-12-07T12:06:02;5.30;;;0.90;;
68284;SDS011;55114;52.052;5.238;2022-12-07T12:08:31;4.93;;;1.50;;
68284;SDS011;55114;52.052;5.238;2022-12-07T12:14:00;5.28;;;0.80;;
68284;SDS011;55114;52.052;5.238;2022-12-07T12:22:15;5.85;;;0.70;;
68284;SDS011;55114;52.052;5.238;2022-12-07T12:24:44;4.38;;;1.00;;
68284;SDS011;55114;52.052;5.238;2022-12-07T12:27:20;6.10;;;0.93;;
68284;SDS011;55114;52.052;5.238;2022-12-07T12:29:51;3.92;;;0.98;;
68284;SDS011;55114;52.052;5.238;2022-12-07T12:32:20;4.77;;;0.70;;
68284;SDS011;55114;52.052;5.238;2022-12-07T12:40:24;3.65;;;0.68;;
68284;SDS011;55114;52.052;5.238;2022-12-07T12:42:58;3.88;;;1.10;;
68284;SDS011;55114;52.052;5.238;2022-12-07T12:45:30;4.50;;;0.97;;
68284;SDS011;55114;52.052;5.238;2022-12-07T12:47:59;4.53;;;0.90;;
68284;SDS011;55114;52.052;5.238;2022-12-07T12:50:34;4.82;;;0.90;;
68284;SDS011;55114;52.052;5.238;2022-12-07T12:53:15;5.65;;;1.10;;
68284;SDS011;55114;52.052;5.238;2022-12-07T12:58:25;6.10;;;1.10;;
68284;SDS011;55114;52.052;5.238;2022-12-07T13:04:18;5.43;;;0.90;;
68284;SDS011;55114;52.052;5.238;2022-12-07T13:06:45;2.92;;;0.70;;
68284;SDS011;55114;52.052;5.238;2022-12-07T13:09:31;3.95;;;1.00;;
68284;SDS011;55114;52.052;5.238;2022-12-07T13:12:02;4.27;;;0.83;;
68284;SDS011;55114;52.052;5.238;2022-12-07T13:17:11;5.07;;;1.05;;
68284;SDS011;55114;52.052;5.238;2022-12-07T13:24:56;4.30;;;1.03;;
68284;SDS011;55114;52.052;5.238;2022-12-07T13:27:25;4.47;;;0.93;;
68284;SDS011;55114;52.052;5.238;2022-12-07T13:29:54;6.15;;;1.20;;
68284;SDS011;55114;52.052;5.238;2022-12-07T13:32:24;8.50;;;1.13;;
68284;SDS011;55114;52.052;5.238;2022-12-07T13:34:52;6.25;;;1.77;;
68284;SDS011;55114;52.052;5.238;2022-12-07T13:37:27;5.03;;;1.30;;
68284;SDS011;55114;52.052;5.238;2022-12-07T13:40:19;7.95;;;2.90;;
68284;SDS011;55114;52.052;5.238;2022-12-07T13:42:48;5.97;;;1.00;;
68284;SDS011;55114;52.052;5.238;2022-12-07T13:45:26;9.07;;;1.83;;
68284;SDS011;55114;52.052;5.238;2022-12-07T13:48:22;4.78;;;1.08;;
68284;SDS011;55114;52.052;5.238;2022-12-07T13:50:55;8.87;;;1.10;;
68284;SDS011;55114;52.052;5.238;2022-12-07T13:53:24;4.68;;;0.90;;
68284;SDS011;55114;52.052;5.238;2022-12-07T13:55:56;3.08;;;0.82;;
68284;SDS011;55114;52.052;5.238;2022-12-07T13:58:27;3.33;;;0.75;;
68284;SDS011;55114;52.052;5.238;2022-12-07T14:00:57;4.55;;;1.00;;
68284;SDS011;55114;52.052;5.238;2022-12-07T14:03:27;4.33;;;1.00;;
68284;SDS011;55114;52.052;5.238;2022-12-07T14:08:46;3.53;;;0.80;;
68284;SDS011;55114;52.052;5.238;2022-12-07T14:11:18;2.63;;;0.70;;
68284;SDS011;55114;52.052;5.238;2022-12-07T14:14:01;4.28;;;0.70;;
68284;SDS011;55114;52.052;5.238;2022-12-07T14:16:39;6.80;;;1.03;;
68284;SDS011;55114;52.052;5.238;2022-12-07T14:22:17;3.72;;;1.00;;
68284;SDS011;55114;52.052;5.238;2022-12-07T14:24:48;10.77;;;3.45;;
68284;SDS011;55114;52.052;5.238;2022-12-07T14:27:31;5.43;;;1.23;;
68284;SDS011;55114;52.052;5.238;2022-12-07T14:30:03;3.33;;;0.83;;
68284;SDS011;55114;52.052;5.238;2022-12-07T14:32:34;7.68;;;3.20;;
68284;SDS011;55114;52.052;5.238;2022-12-07T14:35:03;7.57;;;1.48;;
68284;SDS011;55114;52.052;5.238;2022-12-07T14:37:31;2.67;;;0.88;;
68284;SDS011;55114;52.052;5.238;2022-12-07T14:39:58;3.15;;;0.88;;
68284;SDS011;55114;52.052;5.238;2022-12-07T14:42:27;5.60;;;2.07;;
68284;SDS011;55114;52.052;5.238;2022-12-07T14:44:55;2.60;;;0.50;;
68284;SDS011;55114;52.052;5.238;2022-12-07T14:47:29;2.47;;;0.47;;
68284;SDS011;55114;52.052;5.238;2022-12-07T14:50:17;1.30;;;0.40;;
68284;SDS011;55114;52.052;5.238;2022-12-07T14:52:48;7.68;;;2.50;;
68284;SDS011;55114;52.052;5.238;2022-12-07T14:55:35;6.40;;;1.17;;
68284;SDS011;55114;52.052;5.238;2022-12-07T14:58:10;3.95;;;0.60;;
68284;SDS011;55114;52.052;5.238;2022-12-07T15:00:39;4.47;;;0.90;;
68284;SDS011;55114;52.052;5.238;2022-12-07T15:03:07;5.10;;;0.55;;
68284;SDS011;55114;52.052;5.238;2022-12-07T15:05:34;1.50;;;0.40;;
68284;SDS011;55114;52.052;5.238;2022-12-07T15:08:02;4.00;;;0.67;;
68284;SDS011;55114;52.052;5.238;2022-12-07T15:10:31;3.45;;;0.57;;
68284;SDS011;55114;52.052;5.238;2022-12-07T15:12:59;2.72;;;0.50;;
68284;SDS011;55114;52.052;5.238;2022-12-07T15:16:09;6.28;;;0.60;;
68284;SDS011;55114;52.052;5.238;2022-12-07T15:18:38;6.20;;;0.77;;
68284;SDS011;55114;52.052;5.238;2022-12-07T15:21:14;5.00;;;0.70;;
68284;SDS011;55114;52.052;5.238;2022-12-07T15:23:42;4.20;;;0.70;;
68284;SDS011;55114;52.052;5.238;2022-12-07T15:26:10;4.53;;;1.13;;
68284;SDS011;55114;52.052;5.238;2022-12-07T15:28:41;4.63;;;0.95;;
68284;SDS011;55114;52.052;5.238;2022-12-07T15:31:12;5.30;;;1.00;;
68284;SDS011;55114;52.052;5.238;2022-12-07T15:33:59;4.13;;;0.90;;
68284;SDS011;55114;52.052;5.238;2022-12-07T15:36:30;3.83;;;1.00;;
68284;SDS011;55114;52.052;5.238;2022-12-07T15:39:03;4.70;;;1.10;;
68284;SDS011;55114;52.052;5.238;2022-12-07T15:41:39;3.85;;;1.30;;
68284;SDS011;55114;52.052;5.238;2022-12-07T15:44:09;4.95;;;1.40;;
68284;SDS011;55114;52.052;5.238;2022-12-07T15:46:56;5.20;;;1.20;;
68284;SDS011;55114;52.052;5.238;2022-12-07T15:49:23;6.00;;;1.35;;
68284;SDS011;55114;52.052;5.238;2022-12-07T15:51:52;5.38;;;1.33;;
68284;SDS011;55114;52.052;5.238;2022-12-07T15:54:26;4.97;;;1.27;;
68284;SDS011;55114;52.052;5.238;2022-12-07T15:56:56;4.43;;;1.23;;
68284;SDS011;55114;52.052;5.238;2022-12-07T15:59:25;4.43;;;1.50;;
68284;SDS011;55114;52.052;5.238;2022-12-07T16:01:52;4.45;;;1.45;;
68284;SDS011;55114;52.052;5.238;2022-12-07T16:04:19;7.90;;;1.25;;
68284;SDS011;55114;52.052;5.238;2022-12-07T16:06:47;5.15;;;1.50;;
68284;SDS011;55114;52.052;5.238;2022-12-07T16:09:16;6.60;;;1.40;;
68284;SDS011;55114;52.052;5.238;2022-12-07T16:11:43;5.97;;;1.20;;
68284;SDS011;55114;52.052;5.238;2022-12-07T16:14:10;3.63;;;1.40;;
68284;SDS011;55114;52.052;5.238;2022-12-07T16:16:37;5.75;;;1.30;;
68284;SDS011;55114;52.052;5.238;2022-12-07T16:19:06;4.13;;;1.10;;
68284;SDS011;55114;52.052;5.238;2022-12-07T16:21:34;3.72;;;0.95;;
68284;SDS011;55114;52.052;5.238;2022-12-07T16:24:01;6.93;;;1.17;;
68284;SDS011;55114;52.052;5.238;2022-12-07T16:26:29;3.67;;;1.10;;
68284;SDS011;55114;52.052;5.238;2022-12-07T16:28:56;4.13;;;1.38;;
68284;SDS011;55114;52.052;5.238;2022-12-07T16:31:25;6.20;;;1.10;;
68284;SDS011;55114;52.052;5.238;2022-12-07T16:33:53;3.08;;;0.70;;
68284;SDS011;55114;52.052;5.238;2022-12-07T16:36:20;6.17;;;0.90;;
68284;SDS011;55114;52.052;5.238;2022-12-07T16:39:10;5.70;;;1.30;;
68284;SDS011;55114;52.052;5.238;2022-12-07T16:41:38;7.78;;;1.80;;
68284;SDS011;55114;52.052;5.238;2022-12-07T16:44:06;5.30;;;1.25;;
68284;SDS011;55114;52.052;5.238;2022-12-07T16:46:34;3.92;;;0.98;;
68284;SDS011;55114;52.052;5.238;2022-12-07T16:49:02;8.37;;;1.40;;
68284;SDS011;55114;52.052;5.238;2022-12-07T16:51:29;6.35;;;1.40;;
68284;SDS011;55114;52.052;5.238;2022-12-07T16:53:57;5.68;;;1.45;;